createdAt,value
2018-08-23T00:01:47.383Z,81.20
2018-08-23T00:04:16.557Z,81.70
2018-08-23T00:06:52.434Z,81.40
2018-08-23T00:09:21.250Z,81.10
2018-08-23T00:11:50.237Z,82.20
2018-08-23T00:14:19.097Z,81.90
2018-08-23T00:16:48.248Z,81.40
2018-08-23T00:19:18.250Z,81.30
2018-08-23T00:21:48.212Z,81.70
2018-08-23T00:24:24.429Z,81.20
2018-08-23T00:26:55.570Z,82.10
2018-08-23T00:29:29.121Z,81.80
2018-08-23T00:32:07.387Z,81.20
2018-08-23T00:34:38.213Z,83.30
2018-08-23T00:37:07.808Z,83.10
2018-08-23T00:39:36.630Z,81.00
2018-08-23T00:42:07.695Z,81.80
2018-08-23T00:44:56.906Z,82.20
2018-08-23T00:47:27.804Z,81.90
2018-08-23T00:49:56.616Z,81.90
2018-08-23T00:52:50.243Z,82.40
2018-08-23T00:55:28.565Z,82.10
2018-08-23T00:57:57.449Z,82.30
2018-08-23T01:00:32.311Z,82.50
2018-08-23T01:03:04.572Z,82.50
2018-08-23T01:05:37.505Z,82.30
2018-08-23T01:08:07.459Z,83.10
2018-08-23T01:10:38.858Z,83.00
2018-08-23T01:13:07.718Z,82.90
2018-08-23T01:15:36.586Z,83.00
2018-08-23T01:18:15.302Z,83.20
2018-08-23T01:20:45.170Z,83.30
2018-08-23T01:23:13.993Z,83.70
2018-08-23T01:25:44.873Z,83.70
2018-08-23T01:28:13.722Z,83.60
2018-08-23T01:30:43.080Z,84.20
2018-08-23T01:33:15.356Z,84.20
2018-08-23T01:35:46.636Z,83.60
2018-08-23T01:38:16.611Z,83.40
2018-08-23T01:40:45.439Z,84.10
2018-08-23T01:43:14.299Z,83.50
2018-08-23T01:45:43.113Z,82.30
2018-08-23T01:48:12.141Z,82.40
2018-08-23T01:50:40.971Z,83.10
2018-08-23T01:53:09.828Z,83.10
2018-08-23T01:55:38.650Z,83.80
2018-08-23T01:58:07.598Z,83.80
2018-08-23T02:00:37.020Z,82.90
2018-08-23T02:03:06.403Z,81.90
2018-08-23T02:05:37.862Z,82.10
2018-08-23T02:08:07.705Z,82.90
2018-08-23T02:10:36.530Z,83.20
2018-08-23T02:13:10.433Z,83.60
2018-08-23T02:15:44.393Z,83.50
2018-08-23T02:18:13.213Z,83.50
2018-08-23T02:20:42.086Z,83.50
2018-08-23T02:23:10.949Z,83.70
2018-08-23T02:25:39.847Z,83.80
2018-08-23T02:28:10.947Z,83.70
2018-08-23T02:30:51.098Z,83.30
2018-08-23T02:33:19.953Z,83.60
2018-08-23T02:36:06.477Z,83.40
2018-08-23T02:38:36.043Z,84.20
2018-08-23T02:41:04.948Z,84.70
2018-08-23T02:43:33.768Z,84.20
2018-08-23T02:46:03.521Z,84.20
2018-08-23T02:48:32.653Z,85.00
2018-08-23T02:51:01.431Z,84.90
2018-08-23T02:53:40.816Z,85.30
2018-08-23T02:56:13.479Z,85.10
2018-08-23T02:58:48.468Z,85.50
2018-08-23T03:01:17.282Z,84.40
2018-08-23T03:04:00.404Z,84.60
2018-08-23T03:06:35.746Z,84.10
2018-08-23T03:09:06.055Z,84.40
2018-08-23T03:11:36.644Z,84.50
2018-08-23T03:14:05.881Z,84.10
2018-08-23T03:16:46.842Z,84.00
2018-08-23T03:19:16.141Z,83.50
2018-08-23T03:21:45.183Z,83.20
2018-08-23T03:24:14.476Z,83.60
2018-08-23T03:26:43.285Z,83.80
2018-08-23T03:29:20.090Z,83.70
2018-08-23T03:31:56.410Z,83.40
2018-08-23T03:34:35.255Z,83.50
2018-08-23T03:37:04.291Z,83.50
2018-08-23T03:39:33.113Z,83.80
2018-08-23T03:42:01.909Z,83.80
2018-08-23T03:44:36.213Z,83.40
2018-08-23T03:47:05.086Z,83.60
2018-08-23T03:49:39.096Z,84.10
2018-08-23T03:52:07.925Z,84.10
2018-08-23T03:54:36.879Z,84.50
2018-08-23T03:57:18.052Z,84.00
2018-08-23T03:59:48.878Z,84.80
2018-08-23T04:02:18.841Z,84.50
2018-08-23T04:04:50.293Z,84.10
2018-08-23T04:07:19.238Z,83.40
2018-08-23T04:09:48.096Z,83.60
2018-08-23T04:12:17.006Z,83.40
2018-08-23T04:14:45.764Z,84.10
2018-08-23T04:17:14.573Z,84.20
2018-08-23T04:19:45.731Z,84.30
2018-08-23T04:22:14.717Z,84.70
2018-08-23T04:24:48.756Z,84.60
2018-08-23T04:27:19.162Z,84.50
2018-08-23T04:29:49.064Z,83.90
2018-08-23T04:32:26.423Z,83.40
2018-08-23T04:34:55.624Z,83.60
2018-08-23T04:37:24.754Z,84.00
2018-08-23T04:39:58.743Z,84.80
2018-08-23T04:42:27.528Z,84.70
2018-08-23T04:44:57.868Z,84.50
2018-08-23T04:47:28.410Z,84.00
2018-08-23T04:49:57.195Z,84.80
2018-08-23T04:52:26.003Z,85.10
2018-08-23T04:54:54.842Z,85.10
2018-08-23T04:57:23.606Z,85.20
2018-08-23T04:59:52.376Z,84.90
2018-08-23T05:02:21.159Z,84.40
2018-08-23T05:04:50.180Z,83.70
2018-08-23T05:07:19.368Z,82.80
2018-08-23T05:09:49.409Z,82.90
2018-08-23T05:12:20.021Z,82.70
2018-08-23T05:14:48.919Z,82.60
2018-08-23T05:17:17.788Z,82.70
2018-08-23T05:19:46.588Z,82.70
2018-08-23T05:22:15.484Z,82.00
2018-08-23T05:24:44.291Z,81.70
2018-08-23T05:27:13.068Z,81.10
2018-08-23T05:29:42.270Z,80.60
2018-08-23T05:32:11.036Z,81.00
2018-08-23T05:34:40.059Z,81.10
2018-08-23T05:37:08.904Z,81.70
2018-08-23T05:39:49.996Z,79.90
2018-08-23T05:42:29.622Z,79.20
2018-08-23T05:44:58.419Z,78.20
2018-08-23T05:47:27.188Z,77.50
2018-08-23T05:49:55.982Z,76.90
2018-08-23T05:52:25.126Z,75.90
2018-08-23T05:54:55.341Z,74.40
2018-08-23T05:57:24.166Z,73.60
2018-08-23T05:59:55.090Z,72.60
2018-08-23T06:02:24.013Z,71.40
2018-08-23T06:04:52.828Z,70.30
2018-08-23T06:07:21.633Z,69.00
2018-08-23T06:09:50.422Z,68.50
2018-08-23T06:12:19.422Z,67.90
2018-08-23T06:14:48.783Z,67.80
2018-08-23T06:17:17.569Z,67.70
2018-08-23T06:19:46.373Z,67.30
2018-08-23T06:22:15.186Z,68.10
2018-08-23T06:24:44.001Z,67.50
2018-08-23T06:27:12.868Z,66.70
2018-08-23T06:29:42.352Z,65.50
2018-08-23T06:32:11.266Z,65.80
2018-08-23T06:34:45.810Z,66.50
2018-08-23T06:37:15.512Z,67.20
2018-08-23T06:39:44.296Z,66.70
2018-08-23T06:42:13.123Z,66.80
2018-08-23T06:44:47.013Z,65.60
2018-08-23T06:47:17.883Z,65.90
2018-08-23T06:49:47.965Z,65.50
2018-08-23T06:52:38.632Z,67.70
2018-08-23T06:55:09.671Z,68.00
2018-08-23T06:57:44.233Z,69.10
2018-08-23T07:00:17.318Z,71.10
2018-08-23T07:02:47.964Z,71.40
2018-08-23T07:05:17.027Z,72.90
2018-08-23T07:07:45.894Z,71.60
2018-08-23T07:10:15.275Z,70.70
2018-08-23T07:12:44.343Z,71.60
2018-08-23T07:15:13.239Z,72.30
2018-08-23T07:17:42.106Z,71.10
2018-08-23T07:20:14.167Z,71.30
2018-08-23T07:22:43.089Z,71.20
2018-08-23T07:25:13.819Z,70.60
2018-08-23T07:27:42.762Z,72.00
2018-08-23T07:30:15.661Z,72.70
2018-08-23T07:32:45.819Z,71.50
2018-08-23T07:35:17.989Z,71.70
2018-08-23T07:37:48.187Z,71.30
2018-08-23T07:40:18.805Z,72.70
2018-08-23T07:42:49.009Z,71.80
2018-08-23T07:45:18.181Z,72.50
2018-08-23T07:47:48.211Z,71.20
2018-08-23T07:50:17.013Z,72.70
2018-08-23T07:52:47.954Z,72.40
2018-08-23T07:55:16.718Z,72.80
2018-08-23T07:57:45.941Z,72.60
2018-08-23T08:00:33.447Z,70.40
2018-08-23T08:03:02.197Z,70.20
2018-08-23T08:05:32.952Z,71.00
2018-08-23T08:08:02.162Z,69.00
2018-08-23T08:10:36.359Z,69.00
2018-08-23T08:13:05.300Z,70.80
2018-08-23T08:15:34.193Z,71.00
2018-08-23T08:18:08.649Z,70.70
2018-08-23T08:20:37.464Z,69.10
2018-08-23T08:23:06.370Z,68.30
2018-08-23T08:25:35.213Z,67.00
2018-08-23T08:28:03.998Z,68.50
2018-08-23T08:30:42.283Z,68.90
2018-08-23T08:33:25.799Z,69.90
2018-08-23T08:36:01.672Z,70.70
2018-08-23T08:38:31.182Z,70.00
2018-08-23T08:41:00.131Z,68.70
2018-08-23T08:43:28.992Z,70.50
2018-08-23T08:45:59.782Z,71.10
2018-08-23T08:48:33.622Z,69.90
2018-08-23T08:51:20.539Z,67.80
2018-08-23T08:53:49.352Z,68.00
2018-08-23T08:56:22.709Z,65.20
2018-08-23T08:58:51.857Z,63.80
2018-08-23T09:01:21.210Z,62.00
2018-08-23T09:03:50.039Z,63.70
2018-08-23T09:06:23.217Z,64.50
2018-08-23T09:08:52.076Z,65.10
2018-08-23T09:11:23.477Z,65.40
2018-08-23T09:13:52.375Z,66.00
2018-08-23T09:16:22.903Z,63.50
2018-08-23T09:19:01.051Z,63.60
2018-08-23T09:21:30.245Z,63.50
2018-08-23T09:24:09.236Z,61.40
2018-08-23T09:26:38.079Z,61.80
2018-08-23T09:29:16.734Z,63.50
2018-08-23T09:31:45.544Z,64.00
2018-08-23T09:34:14.771Z,61.70
2018-08-23T09:36:43.554Z,61.30
2018-08-23T09:39:12.357Z,63.00
2018-08-23T09:41:41.346Z,61.80
2018-08-23T09:44:10.430Z,62.40
2018-08-23T09:46:47.798Z,64.50
2018-08-23T09:49:16.553Z,65.90
2018-08-23T09:51:45.372Z,63.70
2018-08-23T09:54:18.369Z,63.10
2018-08-23T09:56:47.178Z,63.50
2018-08-23T09:59:16.877Z,62.80
2018-08-23T10:01:51.038Z,64.50
2018-08-23T10:04:25.109Z,64.30
2018-08-23T10:07:02.144Z,64.40
2018-08-23T10:09:35.593Z,65.20
2018-08-23T10:12:09.627Z,65.20
2018-08-23T10:14:43.837Z,65.50
2018-08-23T10:17:18.282Z,65.00
2018-08-23T10:19:52.535Z,65.50
2018-08-23T10:22:26.768Z,64.50
2018-08-23T10:24:56.057Z,64.80
2018-08-23T10:27:24.822Z,64.80
2018-08-23T10:29:53.579Z,64.20
2018-08-23T10:32:22.536Z,65.40
2018-08-23T10:34:51.253Z,65.30
2018-08-23T10:37:20.200Z,65.40
2018-08-23T10:39:49.501Z,65.20
2018-08-23T10:42:18.333Z,65.20
2018-08-23T10:44:47.145Z,67.00
2018-08-23T10:47:21.194Z,66.60
2018-08-23T10:49:49.996Z,65.10
2018-08-23T10:52:18.802Z,65.00
2018-08-23T10:54:48.088Z,64.00
2018-08-23T10:57:18.814Z,64.70
2018-08-23T10:59:47.669Z,64.60
2018-08-23T11:02:17.800Z,64.60
2018-08-23T11:04:46.726Z,65.20
2018-08-23T11:07:15.537Z,64.10
2018-08-23T11:09:49.658Z,63.90
2018-08-23T11:12:23.753Z,63.80
2018-08-23T11:14:52.602Z,63.90
2018-08-23T11:17:26.677Z,65.20
2018-08-23T11:21:04.172Z,64.40
2018-08-23T11:23:33.516Z,63.00
2018-08-23T11:26:02.317Z,64.60
2018-08-23T11:28:33.577Z,63.80
2018-08-23T11:31:02.986Z,63.60
2018-08-23T11:33:32.138Z,63.20
2018-08-23T11:36:00.963Z,63.00
2018-08-23T11:38:29.788Z,63.00
2018-08-23T11:40:58.683Z,59.90
2018-08-23T11:43:27.474Z,59.50
2018-08-23T11:45:57.371Z,59.70
2018-08-23T11:48:26.187Z,59.80
2018-08-23T11:50:55.236Z,60.60
2018-08-23T11:53:24.199Z,60.90
2018-08-23T11:55:53.034Z,59.80
2018-08-23T11:58:21.883Z,60.30
2018-08-23T12:00:50.796Z,60.60
2018-08-23T12:03:22.522Z,59.10
2018-08-23T12:05:51.340Z,60.10
2018-08-23T12:08:20.200Z,57.80
2018-08-23T12:10:49.057Z,57.20
2018-08-23T12:13:17.894Z,55.40
2018-08-23T12:15:46.733Z,55.70
2018-08-23T12:18:15.580Z,55.40
2018-08-23T12:20:44.379Z,56.50
2018-08-23T12:23:13.161Z,56.40
2018-08-23T12:25:42.631Z,55.40
2018-08-23T12:28:16.782Z,56.00
2018-08-23T12:30:45.642Z,54.70
2018-08-23T12:33:16.071Z,55.40
2018-08-23T12:35:45.393Z,55.10
2018-08-23T12:38:21.703Z,55.20
2018-08-23T12:40:56.259Z,52.60
2018-08-23T12:43:30.219Z,54.10
2018-08-23T12:46:04.805Z,54.70
2018-08-23T12:48:35.127Z,55.10
2018-08-23T12:51:04.400Z,55.60
2018-08-23T12:53:33.176Z,53.30
2018-08-23T12:56:29.423Z,52.10
2018-08-23T12:59:04.146Z,52.60
2018-08-23T13:01:33.174Z,52.00
2018-08-23T13:04:02.051Z,51.60
2018-08-23T13:06:30.773Z,52.80
2018-08-23T13:08:59.645Z,51.80
2018-08-23T13:11:28.506Z,50.60
2018-08-23T13:13:57.339Z,50.50
2018-08-23T13:16:26.184Z,50.60
2018-08-23T13:18:54.972Z,52.90
2018-08-23T13:21:23.786Z,54.10
2018-08-23T13:23:52.668Z,52.80
2018-08-23T13:26:21.515Z,52.00
2018-08-23T13:28:50.373Z,51.30
2018-08-23T13:31:19.152Z,51.10
2018-08-23T13:33:48.027Z,49.50
2018-08-23T13:36:16.957Z,52.70
2018-08-23T13:38:45.746Z,53.10
2018-08-23T13:41:14.578Z,53.10
2018-08-23T13:43:43.428Z,53.90
2018-08-23T13:46:12.291Z,53.90
2018-08-23T13:48:42.059Z,54.60
2018-08-23T13:51:10.897Z,56.00
2018-08-23T13:53:39.698Z,55.50
2018-08-23T13:56:08.567Z,55.00
2018-08-23T13:58:37.387Z,54.70
2018-08-23T14:01:06.237Z,54.50
2018-08-23T14:03:35.099Z,55.20
2018-08-23T14:06:03.987Z,56.10
2018-08-23T14:08:32.803Z,54.30
2018-08-23T14:11:02.138Z,54.60
2018-08-23T14:13:30.914Z,54.40
2018-08-23T14:16:04.794Z,53.00
2018-08-23T14:18:34.887Z,53.40
2018-08-23T14:21:03.748Z,53.40
2018-08-23T14:23:32.904Z,52.70
2018-08-23T14:26:01.726Z,53.90
2018-08-23T14:28:30.904Z,53.50
2018-08-23T14:30:59.857Z,54.00
2018-08-23T14:33:28.877Z,53.50
2018-08-23T14:35:57.750Z,53.80
2018-08-23T14:38:26.574Z,53.30
2018-08-23T14:40:55.462Z,52.00
2018-08-23T14:43:24.284Z,51.00
2018-08-23T14:45:53.160Z,51.20
2018-08-23T14:48:21.935Z,51.70
2018-08-23T14:50:53.541Z,50.90
2018-08-23T14:53:28.063Z,50.40
2018-08-23T14:56:02.148Z,50.40
2018-08-23T14:58:31.473Z,50.10
2018-08-23T15:01:00.364Z,50.30
2018-08-23T15:03:29.209Z,50.60
2018-08-23T15:05:58.058Z,50.30
2018-08-23T15:08:26.864Z,50.10
2018-08-23T15:10:55.631Z,50.10
2018-08-23T15:13:24.492Z,50.10
2018-08-23T15:15:53.986Z,50.90
2018-08-23T15:18:23.460Z,52.90
2018-08-23T15:20:52.406Z,52.20
2018-08-23T15:23:21.248Z,51.30
2018-08-23T15:25:50.337Z,51.70
2018-08-23T15:28:19.162Z,52.40
2018-08-23T15:30:47.964Z,53.20
2018-08-23T15:33:16.745Z,53.10
2018-08-23T15:36:05.612Z,53.50
2018-08-23T15:38:35.960Z,51.90
2018-08-23T15:41:05.492Z,52.20
2018-08-23T15:43:34.284Z,51.90
2018-08-23T15:46:03.252Z,52.80
2018-08-23T15:48:32.155Z,52.70
2018-08-23T15:51:13.670Z,51.40
2018-08-23T15:53:43.152Z,51.90
2018-08-23T15:56:12.066Z,52.30
2018-08-23T15:58:40.801Z,51.90
2018-08-23T16:01:09.768Z,52.50
2018-08-23T16:03:38.718Z,52.90
2018-08-23T16:06:16.685Z,52.40
2018-08-23T16:08:53.701Z,53.50
2018-08-23T16:11:23.773Z,53.50
2018-08-23T16:13:53.167Z,53.50
2018-08-23T16:16:27.418Z,53.00
2018-08-23T16:19:01.463Z,53.10
2018-08-23T16:21:36.851Z,53.70
2018-08-23T16:24:12.308Z,54.00
2018-08-23T16:26:46.379Z,54.00
2018-08-23T16:29:15.148Z,54.10
2018-08-23T16:31:44.026Z,53.90
2018-08-23T16:34:12.840Z,53.90
2018-08-23T16:36:41.680Z,54.40
2018-08-23T16:39:17.065Z,54.90
2018-08-23T16:41:45.884Z,54.60
2018-08-23T16:44:14.674Z,55.10
2018-08-23T16:46:43.628Z,55.40
2018-08-23T16:49:12.441Z,55.80
2018-08-23T16:51:41.366Z,57.50
2018-08-23T16:54:10.253Z,57.50
2018-08-23T16:56:39.138Z,57.20
2018-08-23T16:59:08.233Z,57.00
2018-08-23T17:01:37.012Z,56.90
2018-08-23T17:04:06.180Z,57.10
2018-08-23T17:06:36.807Z,57.40
2018-08-23T17:09:08.340Z,57.40
2018-08-23T17:11:37.166Z,57.40
2018-08-23T17:14:06.234Z,57.30
2018-08-23T17:16:40.380Z,55.30
2018-08-23T17:19:09.780Z,55.70
2018-08-23T17:21:38.574Z,56.60
2018-08-23T17:24:13.938Z,55.80
2018-08-23T17:26:42.742Z,55.80
2018-08-23T17:29:11.843Z,56.00
2018-08-23T17:31:40.670Z,55.50
2018-08-23T17:34:10.033Z,55.80
2018-08-23T17:36:41.608Z,55.90
2018-08-23T17:39:20.390Z,55.20
2018-08-23T17:41:50.909Z,55.10
2018-08-23T17:44:20.613Z,55.40
2018-08-23T17:46:50.684Z,56.90
2018-08-23T17:49:22.539Z,56.90
2018-08-23T17:51:51.956Z,56.80
2018-08-23T17:54:22.113Z,57.40
2018-08-23T17:56:51.798Z,57.20
2018-08-23T17:59:21.041Z,58.50
2018-08-23T18:01:50.902Z,59.00
2018-08-23T18:04:19.810Z,58.50
2018-08-23T18:06:48.603Z,57.40
2018-08-23T18:09:19.308Z,58.20
2018-08-23T18:11:49.482Z,58.30
2018-08-23T18:14:18.406Z,57.70
2018-08-23T18:16:52.456Z,58.20
2018-08-23T18:19:39.806Z,58.50
2018-08-23T18:22:10.268Z,58.80
2018-08-23T18:24:41.848Z,59.00
2018-08-23T18:27:11.691Z,59.40
2018-08-23T18:29:40.509Z,60.00
2018-08-23T18:32:09.455Z,61.00
2018-08-23T18:34:38.937Z,61.70
2018-08-23T18:37:13.554Z,62.60
2018-08-23T18:39:46.509Z,62.50
2018-08-23T18:42:15.404Z,62.90
2018-08-23T18:44:52.066Z,63.00
2018-08-23T18:47:20.971Z,63.50
2018-08-23T18:49:49.853Z,63.80
2018-08-23T18:52:20.199Z,63.80
2018-08-23T18:54:49.181Z,63.80
2018-08-23T18:57:18.066Z,63.70
2018-08-23T18:59:53.431Z,64.60
2018-08-23T19:02:23.645Z,65.90
2018-08-23T19:04:52.783Z,66.00
2018-08-23T19:07:27.619Z,67.00
2018-08-23T19:10:00.926Z,67.10
2018-08-23T19:12:40.922Z,67.70
2018-08-23T19:15:09.949Z,67.50
2018-08-23T19:17:40.801Z,67.90
2018-08-23T19:20:11.233Z,68.20
2018-08-23T19:22:40.085Z,68.40
2018-08-23T19:25:11.203Z,69.10
2018-08-23T19:27:40.192Z,69.40
2018-08-23T19:30:09.742Z,69.00
2018-08-23T19:32:39.770Z,69.60
2018-08-23T19:35:08.699Z,69.20
2018-08-23T19:37:37.520Z,69.40
2018-08-23T19:40:06.341Z,69.80
2018-08-23T19:42:35.657Z,70.10
2018-08-23T19:45:04.565Z,69.80
2018-08-23T19:47:38.602Z,69.80
2018-08-23T19:50:09.679Z,70.10
2018-08-23T19:52:38.608Z,69.60
2018-08-23T19:55:19.056Z,70.00
2018-08-23T19:58:00.389Z,70.00
2018-08-23T20:00:35.391Z,69.80
2018-08-23T20:03:04.513Z,69.90
2018-08-23T20:05:34.052Z,69.70
2018-08-23T20:08:02.908Z,69.60
2018-08-23T20:10:32.559Z,69.50
2018-08-23T20:13:02.421Z,70.00
2018-08-23T20:15:31.904Z,70.10
2018-08-23T20:18:01.550Z,69.90
2018-08-23T20:20:31.447Z,69.80
2018-08-23T20:23:00.324Z,69.70
2018-08-23T20:25:31.524Z,69.50
2018-08-23T20:28:01.239Z,69.40
2018-08-23T20:30:30.831Z,68.80
2018-08-23T20:33:02.173Z,68.90
2018-08-23T20:35:31.974Z,68.80
2018-08-23T20:38:01.680Z,68.60
2018-08-23T20:40:31.707Z,68.10
2018-08-23T20:43:01.658Z,67.80
2018-08-23T20:45:32.310Z,67.90
2018-08-23T20:48:01.548Z,67.30
2018-08-23T20:50:30.994Z,67.50
2018-08-23T20:53:00.958Z,67.30
2018-08-23T20:55:30.513Z,68.30
2018-08-23T20:58:03.632Z,68.00
2018-08-23T21:00:33.969Z,67.90
2018-08-23T21:03:03.004Z,68.20
2018-08-23T21:05:32.161Z,67.90
2018-08-23T21:08:01.467Z,68.10
2018-08-23T21:10:30.359Z,68.00
2018-08-23T21:13:03.542Z,68.70
2018-08-23T21:15:35.688Z,68.70
2018-08-23T21:18:05.256Z,68.40
2018-08-23T21:20:34.069Z,68.70
2018-08-23T21:23:02.881Z,68.90
2018-08-23T21:25:31.728Z,69.10
2018-08-23T21:28:00.526Z,69.00
2018-08-23T21:30:29.363Z,70.20
2018-08-23T21:32:58.152Z,71.30
2018-08-23T21:35:27.015Z,71.80
2018-08-23T21:37:56.208Z,71.80
2018-08-23T21:40:25.594Z,71.00
2018-08-23T21:42:54.620Z,71.20
2018-08-23T21:45:23.416Z,71.40
2018-08-23T21:47:52.228Z,71.80
2018-08-23T21:50:21.025Z,72.50
2018-08-23T21:52:50.345Z,72.50
2018-08-23T21:55:21.573Z,72.90
2018-08-23T21:57:50.406Z,73.80
2018-08-23T22:00:20.741Z,73.50
2018-08-23T22:02:49.532Z,75.00
2018-08-23T22:05:18.287Z,75.30
2018-08-23T22:07:47.104Z,75.20
2018-08-23T22:10:16.008Z,75.70
2018-08-23T22:12:44.812Z,76.00
2018-08-23T22:15:13.949Z,76.80
2018-08-23T22:17:42.786Z,78.10
2018-08-23T22:20:11.596Z,77.60
2018-08-23T22:22:40.377Z,78.80
2018-08-23T22:25:09.175Z,78.50
2018-08-23T22:27:37.972Z,78.80
2018-08-23T22:30:08.333Z,78.60
2018-08-23T22:32:37.182Z,77.80
2018-08-23T22:35:06.046Z,79.20
2018-08-23T22:37:34.836Z,79.50
2018-08-23T22:40:03.673Z,81.00
2018-08-23T22:42:32.494Z,80.20
2018-08-23T22:45:01.239Z,80.10
2018-08-23T22:47:30.021Z,81.00
2018-08-23T22:49:58.877Z,81.40
2018-08-23T22:52:27.673Z,80.80
2018-08-23T22:54:56.469Z,81.00
2018-08-23T22:57:25.777Z,81.90
2018-08-23T22:59:54.564Z,81.50
2018-08-23T23:02:28.698Z,82.70
2018-08-23T23:04:57.502Z,82.30
2018-08-23T23:07:26.316Z,82.70
2018-08-23T23:09:55.086Z,83.80
2018-08-23T23:12:23.843Z,84.50
2018-08-23T23:14:52.652Z,84.60
2018-08-23T23:17:21.532Z,84.20
2018-08-23T23:19:50.325Z,85.00
2018-08-23T23:22:19.454Z,84.40
2018-08-23T23:24:53.506Z,84.60
2018-08-23T23:27:22.317Z,84.70
2018-08-23T23:29:51.079Z,84.70
2018-08-23T23:32:19.977Z,84.70
2018-08-23T23:34:48.733Z,84.40
2018-08-23T23:37:17.477Z,84.10
2018-08-23T23:39:46.460Z,84.30
2018-08-23T23:42:15.324Z,84.00
2018-08-23T23:44:44.167Z,84.00
2018-08-23T23:47:12.962Z,85.20
2018-08-23T23:49:41.895Z,84.50
2018-08-23T23:52:10.661Z,84.20
2018-08-23T23:54:39.433Z,83.40
2018-08-23T23:57:08.249Z,83.00
2018-08-23T23:59:37.078Z,82.50
